Nitta Yuma, Mississippi
Current Conditions -  °F | °C
As of 3:53 AM on Thursday 27 Nov 2014 (Local Time) from KGLH Reporting Station
Clear Clear  
Wind Chill: 35°   Ceiling: Unl
Heat Index: 42°   Visibility: 10mi
Dew Point: 30°   Wind: 13mph
Humidity: 62%   Direction: 330°NNW
Pressure: 30.34"   Gusts: NA
Location:  33.02°N, 90.85°W
Report Text: KGLH 270953Z AUTO 33011KT 10SM CLR 06/M01 A3034 RMK AO2 SLP283 T00561011
Loading
Personal Weather Stations






























Interactive Weather Map New forecast layout! Learn more

10-Day Weather Forecast

Advertisements
Track Severe Weather on mobile